Denhart, Iowa
Current Conditions -  °F | °C
As of 4:35 AM on Sunday 21 Dec 2014 (Local Time) from KCAV Reporting Station
Moderate Fog Moderate Fog  
Wind Chill: -5°   Ceiling: 200
Heat Index:   Visibility: 0.25mi
Dew Point:   Wind: 17mph
Humidity: 100%   Direction: 170°S
Pressure: 29.95"   Gusts: NA
Location:  42.9524°N, 93.7361°W
Report Text: KCAV 211035Z AUTO 17015KT 1/4SM FG OVC002 01/01 A2995 RMK AO2
Loading
Personal Weather Stations






























Interactive Weather Map New forecast layout! Learn more

10-Day Weather Forecast

Advertisements
Track Severe Weather on mobile